sensor_id;sensor_type;location;lat;lon;timestamp;pressure;altitude;pressure_sealevel;temperature;humidity
58622;BME280;44389;51.578;5.456;2023-07-30T00:00:31;100801.31;;;14.14;100.00
58622;BME280;44389;51.578;5.456;2023-07-30T00:02:56;100804.72;;;14.11;100.00
58622;BME280;44389;51.578;5.456;2023-07-30T00:05:21;100813.31;;;14.09;100.00
58622;BME280;44389;51.578;5.456;2023-07-30T00:07:47;100807.19;;;14.02;100.00
58622;BME280;44389;51.578;5.456;2023-07-30T00:10:12;100814.06;;;14.02;100.00
58622;BME280;44389;51.578;5.456;2023-07-30T00:12:38;100808.84;;;13.98;100.00
58622;BME280;44389;51.578;5.456;2023-07-30T00:15:03;100803.66;;;13.97;100.00
58622;BME280;44389;51.578;5.456;2023-07-30T00:17:29;100802.75;;;13.95;100.00
58622;BME280;44389;51.578;5.456;2023-07-30T00:19:54;100799.28;;;13.94;100.00
58622;BME280;44389;51.578;5.456;2023-07-30T00:22:19;100795.00;;;13.96;100.00
58622;BME280;44389;51.578;5.456;2023-07-30T00:24:45;100796.66;;;13.93;100.00
58622;BME280;44389;51.578;5.456;2023-07-30T00:27:10;100795.75;;;13.89;100.00
58622;BME280;44389;51.578;5.456;2023-07-30T00:29:35;100803.56;;;13.92;100.00
58622;BME280;44389;51.578;5.456;2023-07-30T00:32:01;100802.72;;;13.92;100.00
58622;BME280;44389;51.578;5.456;2023-07-30T00:34:26;100812.16;;;13.88;100.00
58622;BME280;44389;51.578;5.456;2023-07-30T00:36:51;100805.31;;;13.92;100.00
58622;BME280;44389;51.578;5.456;2023-07-30T00:39:17;100810.44;;;13.90;100.00
58622;BME280;44389;51.578;5.456;2023-07-30T00:41:42;100811.25;;;13.86;100.00
58622;BME280;44389;51.578;5.456;2023-07-30T00:44:07;100806.03;;;13.83;100.00
58622;BME280;44389;51.578;5.456;2023-07-30T00:46:33;100806.00;;;13.81;100.00
58622;BME280;44389;51.578;5.456;2023-07-30T00:48:59;100804.25;;;13.80;100.00
58622;BME280;44389;51.578;5.456;2023-07-30T00:51:26;100812.75;;;13.73;100.00
58622;BME280;44389;51.578;5.456;2023-07-30T00:53:51;100808.38;;;13.68;100.00
58622;BME280;44389;51.578;5.456;2023-07-30T00:56:16;100819.59;;;13.68;100.00
58622;BME280;44389;51.578;5.456;2023-07-30T00:58:43;100822.97;;;13.64;100.00
58622;BME280;44389;51.578;5.456;2023-07-30T01:01:09;100821.22;;;13.63;100.00
58622;BME280;44389;51.578;5.456;2023-07-30T01:03:35;100816.00;;;13.60;100.00
58622;BME280;44389;51.578;5.456;2023-07-30T01:06:01;100818.59;;;13.60;100.00
58622;BME280;44389;51.578;5.456;2023-07-30T01:08:26;100826.38;;;13.60;100.00
58622;BME280;44389;51.578;5.456;2023-07-30T01:10:52;100828.13;;;13.61;100.00
58622;BME280;44389;51.578;5.456;2023-07-30T01:13:18;100830.66;;;13.59;100.00
58622;BME280;44389;51.578;5.456;2023-07-30T01:15:44;100833.31;;;13.61;100.00
58622;BME280;44389;51.578;5.456;2023-07-30T01:18:10;100830.63;;;13.56;100.00
58622;BME280;44389;51.578;5.456;2023-07-30T01:20:35;100842.72;;;13.56;100.00
58622;BME280;44389;51.578;5.456;2023-07-30T01:23:01;100840.06;;;13.54;100.00
58622;BME280;44389;51.578;5.456;2023-07-30T01:25:31;100842.59;;;13.49;100.00
58622;BME280;44389;51.578;5.456;2023-07-30T01:28:00;100840.88;;;13.50;100.00
58622;BME280;44389;51.578;5.456;2023-07-30T01:30:29;100840.84;;;13.48;100.00
58622;BME280;44389;51.578;5.456;2023-07-30T01:32:55;100842.56;;;13.48;100.00
58622;BME280;44389;51.578;5.456;2023-07-30T01:35:25;100851.16;;;13.45;100.00
58622;BME280;44389;51.578;5.456;2023-07-30T01:37:51;100850.28;;;13.46;100.00
58622;BME280;44389;51.578;5.456;2023-07-30T01:40:17;100857.19;;;13.44;100.00
58622;BME280;44389;51.578;5.456;2023-07-30T01:42:42;100855.44;;;13.43;100.00
58622;BME280;44389;51.578;5.456;2023-07-30T01:45:07;100853.75;;;13.45;100.00
58622;BME280;44389;51.578;5.456;2023-07-30T01:47:33;100848.56;;;13.45;100.00
58622;BME280;44389;51.578;5.456;2023-07-30T01:49:58;100854.56;;;13.43;100.00
58622;BME280;44389;51.578;5.456;2023-07-30T01:52:24;100861.41;;;13.39;100.00
58622;BME280;44389;51.578;5.456;2023-07-30T01:54:49;100857.09;;;13.40;100.00
58622;BME280;44389;51.578;5.456;2023-07-30T01:57:15;100851.88;;;13.38;100.00
58622;BME280;44389;51.578;5.456;2023-07-30T01:59:40;100857.91;;;13.37;100.00
58622;BME280;44389;51.578;5.456;2023-07-30T02:02:05;100856.09;;;13.34;100.00
58622;BME280;44389;51.578;5.456;2023-07-30T02:04:32;100863.03;;;13.36;100.00
58622;BME280;44389;51.578;5.456;2023-07-30T02:06:57;100858.69;;;13.36;100.00
58622;BME280;44389;51.578;5.456;2023-07-30T02:09:23;100856.91;;;13.32;100.00
58622;BME280;44389;51.578;5.456;2023-07-30T02:11:48;100854.44;;;13.37;100.00
58622;BME280;44389;51.578;5.456;2023-07-30T02:14:13;100851.72;;;13.32;100.00
58622;BME280;44389;51.578;5.456;2023-07-30T02:16:38;100853.53;;;13.36;100.00
58622;BME280;44389;51.578;5.456;2023-07-30T02:19:04;100857.91;;;13.37;100.00
58622;BME280;44389;51.578;5.456;2023-07-30T02:21:29;100849.31;;;13.40;100.00
58622;BME280;44389;51.578;5.456;2023-07-30T02:23:58;100847.63;;;13.42;100.00
58622;BME280;44389;51.578;5.456;2023-07-30T02:26:24;100850.38;;;13.49;100.00
58622;BME280;44389;51.578;5.456;2023-07-30T02:28:49;100848.66;;;13.52;100.00
58622;BME280;44389;51.578;5.456;2023-07-30T02:31:14;100848.72;;;13.55;100.00
58622;BME280;44389;51.578;5.456;2023-07-30T02:33:39;100847.03;;;13.57;100.00
58622;BME280;44389;51.578;5.456;2023-07-30T02:36:05;100839.31;;;13.58;100.00
58622;BME280;44389;51.578;5.456;2023-07-30T02:38:30;100837.56;;;13.59;100.00
58622;BME280;44389;51.578;5.456;2023-07-30T02:40:55;100836.72;;;13.60;100.00
58622;BME280;44389;51.578;5.456;2023-07-30T02:43:21;100841.94;;;13.63;100.00
58622;BME280;44389;51.578;5.456;2023-07-30T02:45:49;100836.78;;;13.63;100.00
58622;BME280;44389;51.578;5.456;2023-07-30T02:48:14;100837.69;;;13.66;100.00
58622;BME280;44389;51.578;5.456;2023-07-30T02:50:40;100845.50;;;13.68;100.00
58622;BME280;44389;51.578;5.456;2023-07-30T02:53:05;100840.38;;;13.71;100.00
58622;BME280;44389;51.578;5.456;2023-07-30T02:55:30;100834.41;;;13.75;100.00
58622;BME280;44389;51.578;5.456;2023-07-30T02:57:55;100842.19;;;13.78;100.00
58622;BME280;44389;51.578;5.456;2023-07-30T03:00:21;100840.53;;;13.80;100.00
58622;BME280;44389;51.578;5.456;2023-07-30T03:02:46;100845.75;;;13.83;100.00
58622;BME280;44389;51.578;5.456;2023-07-30T03:05:11;100842.31;;;13.86;100.00
58622;BME280;44389;51.578;5.456;2023-07-30T03:07:37;100846.66;;;13.87;100.00
58622;BME280;44389;51.578;5.456;2023-07-30T03:10:03;100844.13;;;13.90;100.00
58622;BME280;44389;51.578;5.456;2023-07-30T03:12:28;100837.25;;;13.92;100.00
58622;BME280;44389;51.578;5.456;2023-07-30T03:14:53;100837.28;;;13.94;100.00
58622;BME280;44389;51.578;5.456;2023-07-30T03:17:19;100835.59;;;13.96;100.00
58622;BME280;44389;51.578;5.456;2023-07-30T03:19:44;100843.38;;;13.97;100.00
58622;BME280;44389;51.578;5.456;2023-07-30T03:22:11;100844.22;;;13.98;100.00
58622;BME280;44389;51.578;5.456;2023-07-30T03:24:36;100852.06;;;14.01;100.00
58622;BME280;44389;51.578;5.456;2023-07-30T03:27:01;100846.06;;;14.02;100.00
58622;BME280;44389;51.578;5.456;2023-07-30T03:29:27;100847.78;;;14.03;100.00
58622;BME280;44389;51.578;5.456;2023-07-30T03:31:52;100848.69;;;14.05;100.00
58622;BME280;44389;51.578;5.456;2023-07-30T03:34:17;100848.69;;;14.05;100.00
58622;BME280;44389;51.578;5.456;2023-07-30T03:36:42;100846.09;;;14.05;100.00
58622;BME280;44389;51.578;5.456;2023-07-30T03:39:08;100846.94;;;14.06;100.00
58622;BME280;44389;51.578;5.456;2023-07-30T03:41:33;100855.53;;;14.03;100.00
58622;BME280;44389;51.578;5.456;2023-07-30T03:44:00;100856.44;;;14.05;100.00
58622;BME280;44389;51.578;5.456;2023-07-30T03:46:25;100854.66;;;14.01;100.00
58622;BME280;44389;51.578;5.456;2023-07-30T03:48:51;100861.59;;;14.02;100.00
58622;BME280;44389;51.578;5.456;2023-07-30T03:51:16;100866.81;;;14.05;100.00
58622;BME280;44389;51.578;5.456;2023-07-30T03:53:41;100865.97;;;14.05;100.00
58622;BME280;44389;51.578;5.456;2023-07-30T03:56:08;100869.41;;;14.05;100.00
58622;BME280;44389;51.578;5.456;2023-07-30T03:58:33;100873.75;;;14.06;100.00
58622;BME280;44389;51.578;5.456;2023-07-30T04:00:58;100866.81;;;14.05;100.00
58622;BME280;44389;51.578;5.456;2023-07-30T04:03:23;100872.00;;;14.05;100.00
58622;BME280;44389;51.578;5.456;2023-07-30T04:05:49;100870.31;;;14.07;100.00
58622;BME280;44389;51.578;5.456;2023-07-30T04:08:15;100878.94;;;14.06;100.00
58622;BME280;44389;51.578;5.456;2023-07-30T04:10:41;100873.78;;;14.08;100.00
58622;BME280;44389;51.578;5.456;2023-07-30T04:13:06;100877.22;;;14.08;100.00
58622;BME280;44389;51.578;5.456;2023-07-30T04:15:33;100872.84;;;14.06;100.00
58622;BME280;44389;51.578;5.456;2023-07-30T04:17:58;100872.00;;;14.05;100.00
58622;BME280;44389;51.578;5.456;2023-07-30T04:20:24;100879.78;;;14.05;100.00
58622;BME280;44389;51.578;5.456;2023-07-30T04:22:49;100873.75;;;14.06;100.00
58622;BME280;44389;51.578;5.456;2023-07-30T04:25:14;100883.28;;;14.07;100.00
58622;BME280;44389;51.578;5.456;2023-07-30T04:27:39;100877.22;;;14.08;100.00
58622;BME280;44389;51.578;5.456;2023-07-30T04:30:05;100879.88;;;14.11;100.00
58622;BME280;44389;51.578;5.456;2023-07-30T04:32:31;100882.47;;;14.11;100.00
58622;BME280;44389;51.578;5.456;2023-07-30T04:34:57;100879.00;;;14.12;100.00
58622;BME280;44389;51.578;5.456;2023-07-30T04:37:22;100887.66;;;14.13;100.00
58622;BME280;44389;51.578;5.456;2023-07-30T04:39:47;100873.88;;;14.14;100.00
58622;BME280;44389;51.578;5.456;2023-07-30T04:42:13;100881.69;;;14.17;100.00
58622;BME280;44389;51.578;5.456;2023-07-30T04:44:39;100878.25;;;14.20;100.00
58622;BME280;44389;51.578;5.456;2023-07-30T04:47:05;100879.16;;;14.22;100.00
58622;BME280;44389;51.578;5.456;2023-07-30T04:49:31;100876.63;;;14.25;100.00
58622;BME280;44389;51.578;5.456;2023-07-30T04:51:56;100887.88;;;14.27;100.00
58622;BME280;44389;51.578;5.456;2023-07-30T04:54:21;100875.81;;;14.30;100.00
58622;BME280;44389;51.578;5.456;2023-07-30T04:56:46;100868.97;;;14.34;100.00
58622;BME280;44389;51.578;5.456;2023-07-30T04:59:12;100885.47;;;14.39;100.00
58622;BME280;44389;51.578;5.456;2023-07-30T05:01:37;100883.78;;;14.43;100.00
58622;BME280;44389;51.578;5.456;2023-07-30T05:04:03;100888.16;;;14.45;100.00
58622;BME280;44389;51.578;5.456;2023-07-30T05:06:28;100892.50;;;14.48;100.00
58622;BME280;44389;51.578;5.456;2023-07-30T05:08:53;100896.84;;;14.49;100.00
58622;BME280;44389;51.578;5.456;2023-07-30T05:11:19;100899.47;;;14.52;100.00
58622;BME280;44389;51.578;5.456;2023-07-30T05:13:44;100907.28;;;14.54;100.00
58622;BME280;44389;51.578;5.456;2023-07-30T05:16:10;100912.44;;;14.51;100.00
58622;BME280;44389;51.578;5.456;2023-07-30T05:18:35;100902.91;;;14.51;100.00
58622;BME280;44389;51.578;5.456;2023-07-30T05:21:01;100906.41;;;14.53;100.00
58622;BME280;44389;51.578;5.456;2023-07-30T05:23:26;100914.19;;;14.55;100.00
58622;BME280;44389;51.578;5.456;2023-07-30T05:25:51;100911.59;;;14.55;100.00
58622;BME280;44389;51.578;5.456;2023-07-30T05:28:16;100910.78;;;14.59;100.00
58622;BME280;44389;51.578;5.456;2023-07-30T05:30:42;100916.88;;;14.58;100.00
58622;BME280;44389;51.578;5.456;2023-07-30T05:33:07;100920.31;;;14.58;100.00
58622;BME280;44389;51.578;5.456;2023-07-30T05:35:32;100910.78;;;14.59;100.00
58622;BME280;44389;51.578;5.456;2023-07-30T05:37:58;100909.13;;;14.61;100.00
58622;BME280;44389;51.578;5.456;2023-07-30T05:40:23;100910.84;;;14.60;100.00
58622;BME280;44389;51.578;5.456;2023-07-30T05:42:48;100910.03;;;14.63;100.00
58622;BME280;44389;51.578;5.456;2023-07-30T05:45:14;100910.09;;;14.68;100.00
58622;BME280;44389;51.578;5.456;2023-07-30T05:47:39;100906.69;;;14.72;100.00
58622;BME280;44389;51.578;5.456;2023-07-30T05:50:06;100904.97;;;14.71;100.00
58622;BME280;44389;51.578;5.456;2023-07-30T05:52:32;100905.84;;;14.74;100.00
58622;BME280;44389;51.578;5.456;2023-07-30T05:54:57;100909.34;;;14.76;100.00
58622;BME280;44389;51.578;5.456;2023-07-30T05:57:22;100906.00;;;14.84;100.00
58622;BME280;44389;51.578;5.456;2023-07-30T05:59:47;100913.81;;;14.88;100.00
58622;BME280;44389;51.578;5.456;2023-07-30T06:02:13;100908.69;;;14.91;100.00
58622;BME280;44389;51.578;5.456;2023-07-30T06:04:38;100918.28;;;14.97;100.00
58622;BME280;44389;51.578;5.456;2023-07-30T06:07:04;100919.22;;;15.05;100.00
58622;BME280;44389;51.578;5.456;2023-07-30T06:09:29;100908.84;;;15.05;100.00
58622;BME280;44389;51.578;5.456;2023-07-30T06:11:56;100923.66;;;15.12;100.00
58622;BME280;44389;51.578;5.456;2023-07-30T06:14:22;100921.06;;;15.12;100.00
58622;BME280;44389;51.578;5.456;2023-07-30T06:16:47;100919.44;;;15.22;100.00
58622;BME280;44389;51.578;5.456;2023-07-30T06:19:12;100924.66;;;15.25;100.00
58622;BME280;44389;51.578;5.456;2023-07-30T06:21:38;100924.66;;;15.24;100.00
58622;BME280;44389;51.578;5.456;2023-07-30T06:24:03;100925.66;;;15.37;100.00
58622;BME280;44389;51.578;5.456;2023-07-30T06:26:29;100914.34;;;15.30;100.00
58622;BME280;44389;51.578;5.456;2023-07-30T06:28:54;100916.97;;;15.33;100.00
58622;BME280;44389;51.578;5.456;2023-07-30T06:31:19;100916.13;;;15.34;100.00
58622;BME280;44389;51.578;5.456;2023-07-30T06:33:44;100919.56;;;15.35;100.00
58622;BME280;44389;51.578;5.456;2023-07-30T06:36:10;100924.91;;;15.45;100.00
58622;BME280;44389;51.578;5.456;2023-07-30T06:38:35;100917.97;;;15.47;100.00
58622;BME280;44389;51.578;5.456;2023-07-30T06:41:00;100918.00;;;15.49;100.00
58622;BME280;44389;51.578;5.456;2023-07-30T06:43:26;100914.59;;;15.56;100.00
58622;BME280;44389;51.578;5.456;2023-07-30T06:45:52;100921.56;;;15.59;100.00
58622;BME280;44389;51.578;5.456;2023-07-30T06:48:18;100918.94;;;15.56;100.00
58622;BME280;44389;51.578;5.456;2023-07-30T06:50:43;100913.78;;;15.62;100.00
58622;BME280;44389;51.578;5.456;2023-07-30T06:53:08;100922.47;;;15.61;100.00
58622;BME280;44389;51.578;5.456;2023-07-30T06:55:34;100923.34;;;15.63;100.00
58622;BME280;44389;51.578;5.456;2023-07-30T06:57:59;100918.13;;;15.64;100.00
58622;BME280;44389;51.578;5.456;2023-07-30T07:00:24;100912.22;;;15.78;100.00
58622;BME280;44389;51.578;5.456;2023-07-30T07:02:50;100924.38;;;15.80;100.00
58622;BME280;44389;51.578;5.456;2023-07-30T07:05:16;100917.53;;;15.89;100.00
58622;BME280;44389;51.578;5.456;2023-07-30T07:07:41;100926.19;;;15.89;100.00
58622;BME280;44389;51.578;5.456;2023-07-30T07:10:07;100928.78;;;15.88;100.00
58622;BME280;44389;51.578;5.456;2023-07-30T07:12:32;100922.78;;;15.93;100.00
58622;BME280;44389;51.578;5.456;2023-07-30T07:14:57;100925.47;;;16.03;100.00
58622;BME280;44389;51.578;5.456;2023-07-30T07:17:24;100928.97;;;16.08;100.00
58622;BME280;44389;51.578;5.456;2023-07-30T07:19:49;100938.59;;;16.23;100.00
58622;BME280;44389;51.578;5.456;2023-07-30T07:22:14;100947.41;;;16.40;100.00
58622;BME280;44389;51.578;5.456;2023-07-30T07:24:40;100931.03;;;16.54;100.00
58622;BME280;44389;51.578;5.456;2023-07-30T07:27:05;100933.69;;;16.63;100.00
58622;BME280;44389;51.578;5.456;2023-07-30T07:29:30;100938.81;;;16.54;100.00
58622;BME280;44389;51.578;5.456;2023-07-30T07:31:56;100936.22;;;16.54;100.00
58622;BME280;44389;51.578;5.456;2023-07-30T07:34:21;100938.06;;;16.72;100.00
58622;BME280;44389;51.578;5.456;2023-07-30T07:36:47;100925.13;;;16.83;100.00
58622;BME280;44389;51.578;5.456;2023-07-30T07:39:12;100929.47;;;16.90;100.00
58622;BME280;44389;51.578;5.456;2023-07-30T07:41:37;100932.22;;;17.08;100.00
58622;BME280;44389;51.578;5.456;2023-07-30T07:44:03;100939.19;;;17.13;100.00
58622;BME280;44389;51.578;5.456;2023-07-30T07:46:28;100941.72;;;16.94;100.00
58622;BME280;44389;51.578;5.456;2023-07-30T07:48:54;100950.25;;;16.79;100.00
58622;BME280;44389;51.578;5.456;2023-07-30T07:51:19;100939.78;;;16.67;100.00
58622;BME280;44389;51.578;5.456;2023-07-30T07:53:44;100957.13;;;16.69;100.00
58622;BME280;44389;51.578;5.456;2023-07-30T07:56:10;100950.22;;;16.71;100.00
58622;BME280;44389;51.578;5.456;2023-07-30T07:58:35;100942.47;;;16.81;100.00
58622;BME280;44389;51.578;5.456;2023-07-30T08:01:01;100950.28;;;16.82;100.00
58622;BME280;44389;51.578;5.456;2023-07-30T08:03:27;100955.50;;;16.88;100.00
58622;BME280;44389;51.578;5.456;2023-07-30T08:05:52;100946.03;;;16.95;100.00
58622;BME280;44389;51.578;5.456;2023-07-30T08:08:18;100947.81;;;17.05;100.00
58622;BME280;44389;51.578;5.456;2023-07-30T08:10:43;100952.19;;;17.14;100.00
58622;BME280;44389;51.578;5.456;2023-07-30T08:13:10;100959.19;;;17.23;100.00
58622;BME280;44389;51.578;5.456;2023-07-30T08:15:36;100960.06;;;17.28;100.00
58622;BME280;44389;51.578;5.456;2023-07-30T08:18:01;100960.09;;;17.36;100.00
58622;BME280;44389;51.578;5.456;2023-07-30T08:20:26;100954.84;;;17.22;100.00
58622;BME280;44389;51.578;5.456;2023-07-30T08:22:52;100951.38;;;17.23;100.00
58622;BME280;44389;51.578;5.456;2023-07-30T08:25:17;100957.47;;;17.28;100.00
58622;BME280;44389;51.578;5.456;2023-07-30T08:27:42;100966.13;;;17.25;100.00
58622;BME280;44389;51.578;5.456;2023-07-30T08:30:08;100955.78;;;17.38;100.00
58622;BME280;44389;51.578;5.456;2023-07-30T08:32:33;100954.94;;;17.50;100.00
58622;BME280;44389;51.578;5.456;2023-07-30T08:34:59;100956.69;;;17.51;100.00
58622;BME280;44389;51.578;5.456;2023-07-30T08:37:24;100950.56;;;17.52;100.00
58622;BME280;44389;51.578;5.456;2023-07-30T08:39:49;100954.91;;;17.43;100.00
58622;BME280;44389;51.578;5.456;2023-07-30T08:42:15;100947.03;;;17.28;100.00
58622;BME280;44389;51.578;5.456;2023-07-30T08:44:40;100946.16;;;17.26;100.00
58622;BME280;44389;51.578;5.456;2023-07-30T08:47:06;100958.31;;;17.22;100.00
58622;BME280;44389;51.578;5.456;2023-07-30T08:49:31;100963.47;;;17.13;100.00
58622;BME280;44389;51.578;5.456;2023-07-30T08:51:58;100955.69;;;17.16;100.00
58622;BME280;44389;51.578;5.456;2023-07-30T08:54:24;100961.72;;;17.07;100.00
58622;BME280;44389;51.578;5.456;2023-07-30T08:56:51;100966.06;;;17.10;100.00
58622;BME280;44389;51.578;5.456;2023-07-30T08:59:18;100962.56;;;17.03;100.00
58622;BME280;44389;51.578;5.456;2023-07-30T09:01:44;100956.56;;;17.20;100.00
58622;BME280;44389;51.578;5.456;2023-07-30T09:04:12;100950.41;;;17.04;100.00
58622;BME280;44389;51.578;5.456;2023-07-30T09:06:39;100959.97;;;17.03;99.27
58622;BME280;44389;51.578;5.456;2023-07-30T09:09:05;100959.13;;;17.10;96.80
58622;BME280;44389;51.578;5.456;2023-07-30T09:11:30;100958.31;;;17.27;98.47
58622;BME280;44389;51.578;5.456;2023-07-30T09:13:56;100959.31;;;17.58;99.10
58622;BME280;44389;51.578;5.456;2023-07-30T09:16:24;100968.00;;;17.68;100.00
58622;BME280;44389;51.578;5.456;2023-07-30T09:18:50;100964.63;;;18.06;99.08
58622;BME280;44389;51.578;5.456;2023-07-30T09:21:15;100963.72;;;18.29;99.20
58622;BME280;44389;51.578;5.456;2023-07-30T09:23:45;100961.97;;;18.48;96.30
58622;BME280;44389;51.578;5.456;2023-07-30T09:26:11;100968.88;;;18.82;97.73
58622;BME280;44389;51.578;5.456;2023-07-30T09:28:37;100959.28;;;19.07;95.07
58622;BME280;44389;51.578;5.456;2023-07-30T09:31:05;100961.81;;;19.18;92.02
58622;BME280;44389;51.578;5.456;2023-07-30T09:33:34;100961.84;;;19.10;90.23
58622;BME280;44389;51.578;5.456;2023-07-30T09:36:03;100958.38;;;19.06;89.36
58622;BME280;44389;51.578;5.456;2023-07-30T09:38:29;100948.75;;;19.21;88.51
58622;BME280;44389;51.578;5.456;2023-07-30T09:41:02;100950.41;;;19.36;86.49
58622;BME280;44389;51.578;5.456;2023-07-30T09:43:34;100952.22;;;19.24;86.15
58622;BME280;44389;51.578;5.456;2023-07-30T09:46:05;100952.34;;;18.90;88.33
58622;BME280;44389;51.578;5.456;2023-07-30T09:48:32;100952.38;;;18.64;85.74
58622;BME280;44389;51.578;5.456;2023-07-30T09:51:02;100965.41;;;18.72;87.47
58622;BME280;44389;51.578;5.456;2023-07-30T09:53:33;100975.00;;;18.91;84.86
58622;BME280;44389;51.578;5.456;2023-07-30T09:56:03;100969.66;;;19.22;84.19
58622;BME280;44389;51.578;5.456;2023-07-30T09:58:29;100972.25;;;19.24;82.92
58622;BME280;44389;51.578;5.456;2023-07-30T10:00:57;100971.41;;;19.19;83.56
58622;BME280;44389;51.578;5.456;2023-07-30T10:03:23;100967.97;;;19.03;82.83
58622;BME280;44389;51.578;5.456;2023-07-30T10:05:50;100971.50;;;18.86;83.63
58622;BME280;44389;51.578;5.456;2023-07-30T10:08:22;100986.28;;;18.80;85.82
58622;BME280;44389;51.578;5.456;2023-07-30T10:10:49;100987.16;;;18.96;85.99
58622;BME280;44389;51.578;5.456;2023-07-30T10:13:15;100987.16;;;18.86;84.38
58622;BME280;44389;51.578;5.456;2023-07-30T10:15:43;100985.41;;;18.88;85.80
58622;BME280;44389;51.578;5.456;2023-07-30T10:18:08;100993.25;;;18.79;87.37
58622;BME280;44389;51.578;5.456;2023-07-30T10:20:34;100985.44;;;18.78;85.40
58622;BME280;44389;51.578;5.456;2023-07-30T10:23:00;101001.94;;;18.86;89.51
58622;BME280;44389;51.578;5.456;2023-07-30T10:25:48;101031.56;;;18.66;91.52
58622;BME280;44389;51.578;5.456;2023-07-30T10:28:32;101024.63;;;18.22;95.92
58622;BME280;44389;51.578;5.456;2023-07-30T10:31:04;101027.03;;;17.51;100.00
58622;BME280;44389;51.578;5.456;2023-07-30T10:36:11;101027.72;;;17.14;100.00
58622;BME280;44389;51.578;5.456;2023-07-30T10:38:36;101037.19;;;16.98;100.00
58622;BME280;44389;51.578;5.456;2023-07-30T10:41:10;101037.06;;;16.81;100.00
58622;BME280;44389;51.578;5.456;2023-07-30T10:43:41;101030.09;;;16.83;100.00
58622;BME280;44389;51.578;5.456;2023-07-30T10:46:10;101033.56;;;16.82;100.00
58622;BME280;44389;51.578;5.456;2023-07-30T10:48:42;101031.09;;;16.93;100.00
58622;BME280;44389;51.578;5.456;2023-07-30T10:51:10;101028.56;;;17.10;100.00
58622;BME280;44389;51.578;5.456;2023-07-30T10:53:35;101025.25;;;17.47;100.00
58622;BME280;44389;51.578;5.456;2023-07-30T10:56:05;101028.03;;;17.93;100.00
58622;BME280;44389;51.578;5.456;2023-07-30T10:58:32;101024.63;;;18.40;100.00
58622;BME280;44389;51.578;5.456;2023-07-30T11:00:59;101033.38;;;20.47;95.44
58622;BME280;44389;51.578;5.456;2023-07-30T11:03:27;101024.13;;;21.79;85.93
58622;BME280;44389;51.578;5.456;2023-07-30T11:05:53;101026.38;;;21.40;82.49
58622;BME280;44389;51.578;5.456;2023-07-30T11:08:19;101023.31;;;20.99;79.48
58622;BME280;44389;51.578;5.456;2023-07-30T11:10:45;101036.75;;;20.62;85.18
58622;BME280;44389;51.578;5.456;2023-07-30T11:13:14;101028.44;;;20.13;82.66
58622;BME280;44389;51.578;5.456;2023-07-30T11:15:45;101036.56;;;19.57;83.57
58622;BME280;44389;51.578;5.456;2023-07-30T11:18:12;101041.81;;;19.48;87.27
58622;BME280;44389;51.578;5.456;2023-07-30T11:20:38;101037.91;;;20.28;86.57
58622;BME280;44389;51.578;5.456;2023-07-30T11:23:22;101024.06;;;21.82;81.83
58622;BME280;44389;51.578;5.456;2023-07-30T11:25:49;101021.72;;;23.21;71.39
58622;BME280;44389;51.578;5.456;2023-07-30T11:28:30;101015.56;;;24.04;71.42
58622;BME280;44389;51.578;5.456;2023-07-30T11:31:05;101027.25;;;24.65;59.66
58622;BME280;44389;51.578;5.456;2023-07-30T11:33:30;101038.03;;;24.89;57.60
58622;BME280;44389;51.578;5.456;2023-07-30T11:35:56;101041.06;;;25.40;54.89
58622;BME280;44389;51.578;5.456;2023-07-30T11:38:24;101050.63;;;24.43;56.57
58622;BME280;44389;51.578;5.456;2023-07-30T11:40:50;101057.06;;;23.51;55.77
58622;BME280;44389;51.578;5.456;2023-07-30T11:43:16;101060.41;;;22.67;54.93
58622;BME280;44389;51.578;5.456;2023-07-30T11:45:42;101058.97;;;21.87;57.16
58622;BME280;44389;51.578;5.456;2023-07-30T11:48:09;101061.44;;;21.26;60.06
58622;BME280;44389;51.578;5.456;2023-07-30T11:53:09;101053.19;;;20.84;61.95
58622;BME280;44389;51.578;5.456;2023-07-30T11:55:38;101070.19;;;21.28;61.95
58622;BME280;44389;51.578;5.456;2023-07-30T11:58:05;101055.78;;;20.82;61.31
58622;BME280;44389;51.578;5.456;2023-07-30T12:00:33;101063.13;;;20.42;64.37
58622;BME280;44389;51.578;5.456;2023-07-30T12:03:03;101054.63;;;20.12;69.37
58622;BME280;44389;51.578;5.456;2023-07-30T12:05:33;101044.78;;;20.42;66.64
58622;BME280;44389;51.578;5.456;2023-07-30T12:08:00;101049.78;;;20.74;66.07
58622;BME280;44389;51.578;5.456;2023-07-30T12:10:28;101055.78;;;20.85;67.22
58622;BME280;44389;51.578;5.456;2023-07-30T12:12:53;101055.72;;;20.93;65.38
58622;BME280;44389;51.578;5.456;2023-07-30T12:15:18;101057.59;;;20.77;65.05
58622;BME280;44389;51.578;5.456;2023-07-30T12:17:44;101057.63;;;20.74;68.67
58622;BME280;44389;51.578;5.456;2023-07-30T12:20:11;101052.84;;;21.15;65.84
58622;BME280;44389;51.578;5.456;2023-07-30T12:22:36;101055.88;;;21.57;64.64
58622;BME280;44389;51.578;5.456;2023-07-30T12:25:04;101052.13;;;21.75;61.18
58622;BME280;44389;51.578;5.456;2023-07-30T12:27:29;101062.81;;;21.61;61.79
58622;BME280;44389;51.578;5.456;2023-07-30T12:29:55;101064.97;;;21.25;60.36
58622;BME280;44389;51.578;5.456;2023-07-30T12:32:20;101062.59;;;21.00;61.68
58622;BME280;44389;51.578;5.456;2023-07-30T12:34:45;101063.06;;;20.49;60.78
58622;BME280;44389;51.578;5.456;2023-07-30T12:37:11;101062.41;;;20.21;60.68
58622;BME280;44389;51.578;5.456;2023-07-30T12:39:37;101072.06;;;20.10;65.55
58622;BME280;44389;51.578;5.456;2023-07-30T12:42:02;101066.03;;;19.98;64.26